sensor_id;sensor_type;location;lat;lon;timestamp;P1;durP1;ratioP1;P2;durP2;ratioP2
73136;SDS011;67767;45.636;11.756;2023-06-19T00:02:16;13.80;;;10.00;;
73136;SDS011;67767;45.636;11.756;2023-06-19T00:04:42;15.27;;;9.50;;
73136;SDS011;67767;45.636;11.756;2023-06-19T00:07:08;14.10;;;9.40;;
73136;SDS011;67767;45.636;11.756;2023-06-19T00:09:33;13.00;;;8.50;;
73136;SDS011;67767;45.636;11.756;2023-06-19T00:11:59;13.30;;;8.90;;
73136;SDS011;67767;45.636;11.756;2023-06-19T00:14:26;11.90;;;8.65;;
73136;SDS011;67767;45.636;11.756;2023-06-19T00:16:52;11.93;;;8.15;;
73136;SDS011;67767;45.636;11.756;2023-06-19T00:19:17;13.90;;;8.97;;
73136;SDS011;67767;45.636;11.756;2023-06-19T00:21:43;16.08;;;9.25;;
73136;SDS011;67767;45.636;11.756;2023-06-19T00:24:09;12.83;;;8.60;;
73136;SDS011;67767;45.636;11.756;2023-06-19T00:26:35;11.95;;;8.43;;
73136;SDS011;67767;45.636;11.756;2023-06-19T00:29:01;13.35;;;8.60;;
73136;SDS011;67767;45.636;11.756;2023-06-19T00:31:27;13.47;;;9.03;;
73136;SDS011;67767;45.636;11.756;2023-06-19T00:33:53;13.05;;;8.85;;
73136;SDS011;67767;45.636;11.756;2023-06-19T00:36:19;15.48;;;8.95;;
73136;SDS011;67767;45.636;11.756;2023-06-19T00:38:48;18.13;;;9.90;;
73136;SDS011;67767;45.636;11.756;2023-06-19T00:41:14;13.88;;;8.52;;
73136;SDS011;67767;45.636;11.756;2023-06-19T00:43:41;12.38;;;8.40;;
73136;SDS011;67767;45.636;11.756;2023-06-19T00:46:07;12.97;;;8.60;;
73136;SDS011;67767;45.636;11.756;2023-06-19T00:48:34;12.77;;;8.77;;
73136;SDS011;67767;45.636;11.756;2023-06-19T00:51:00;13.25;;;9.10;;
73136;SDS011;67767;45.636;11.756;2023-06-19T00:53:26;12.27;;;9.10;;
73136;SDS011;67767;45.636;11.756;2023-06-19T00:55:53;13.27;;;9.17;;
73136;SDS011;67767;45.636;11.756;2023-06-19T00:58:20;13.38;;;9.40;;
73136;SDS011;67767;45.636;11.756;2023-06-19T01:00:47;12.73;;;8.80;;
73136;SDS011;67767;45.636;11.756;2023-06-19T01:03:13;12.88;;;9.50;;
73136;SDS011;67767;45.636;11.756;2023-06-19T01:05:39;12.73;;;9.30;;
73136;SDS011;67767;45.636;11.756;2023-06-19T01:08:10;12.63;;;9.00;;
73136;SDS011;67767;45.636;11.756;2023-06-19T01:10:59;12.77;;;8.98;;
73136;SDS011;67767;45.636;11.756;2023-06-19T01:13:46;11.48;;;9.30;;
73136;SDS011;67767;45.636;11.756;2023-06-19T01:16:15;13.07;;;8.60;;
73136;SDS011;67767;45.636;11.756;2023-06-19T01:18:42;15.25;;;9.30;;
73136;SDS011;67767;45.636;11.756;2023-06-19T01:21:11;13.17;;;9.03;;
73136;SDS011;67767;45.636;11.756;2023-06-19T01:23:38;15.80;;;9.20;;
73136;SDS011;67767;45.636;11.756;2023-06-19T01:26:05;13.70;;;9.25;;
73136;SDS011;67767;45.636;11.756;2023-06-19T01:28:32;14.57;;;9.32;;
73136;SDS011;67767;45.636;11.756;2023-06-19T01:31:00;14.20;;;9.23;;
73136;SDS011;67767;45.636;11.756;2023-06-19T01:33:27;14.48;;;9.27;;
73136;SDS011;67767;45.636;11.756;2023-06-19T01:35:55;13.82;;;9.43;;
73136;SDS011;67767;45.636;11.756;2023-06-19T01:38:22;15.23;;;9.50;;
73136;SDS011;67767;45.636;11.756;2023-06-19T01:40:54;13.38;;;9.45;;
73136;SDS011;67767;45.636;11.756;2023-06-19T01:43:21;14.50;;;9.80;;
73136;SDS011;67767;45.636;11.756;2023-06-19T01:45:49;14.43;;;9.93;;
73136;SDS011;67767;45.636;11.756;2023-06-19T01:48:15;15.75;;;9.75;;
73136;SDS011;67767;45.636;11.756;2023-06-19T01:50:44;14.17;;;9.90;;
73136;SDS011;67767;45.636;11.756;2023-06-19T01:53:12;13.95;;;9.20;;
73136;SDS011;67767;45.636;11.756;2023-06-19T01:55:38;13.63;;;9.30;;
73136;SDS011;67767;45.636;11.756;2023-06-19T01:58:04;13.02;;;10.23;;
73136;SDS011;67767;45.636;11.756;2023-06-19T02:00:29;13.33;;;9.70;;
73136;SDS011;67767;45.636;11.756;2023-06-19T02:02:57;14.00;;;9.73;;
73136;SDS011;67767;45.636;11.756;2023-06-19T02:05:23;12.77;;;9.30;;
73136;SDS011;67767;45.636;11.756;2023-06-19T02:07:48;18.73;;;10.43;;
73136;SDS011;67767;45.636;11.756;2023-06-19T02:10:14;17.33;;;9.83;;
73136;SDS011;67767;45.636;11.756;2023-06-19T02:12:40;17.73;;;10.80;;
73136;SDS011;67767;45.636;11.756;2023-06-19T02:15:05;13.30;;;9.43;;
73136;SDS011;67767;45.636;11.756;2023-06-19T02:17:32;13.98;;;10.13;;
73136;SDS011;67767;45.636;11.756;2023-06-19T02:19:58;13.00;;;9.25;;
73136;SDS011;67767;45.636;11.756;2023-06-19T02:22:23;11.97;;;8.77;;
73136;SDS011;67767;45.636;11.756;2023-06-19T02:24:49;12.90;;;9.48;;
73136;SDS011;67767;45.636;11.756;2023-06-19T02:27:15;13.63;;;9.60;;
73136;SDS011;67767;45.636;11.756;2023-06-19T02:29:41;24.52;;;11.20;;
73136;SDS011;67767;45.636;11.756;2023-06-19T02:32:07;16.60;;;10.65;;
73136;SDS011;67767;45.636;11.756;2023-06-19T02:34:32;17.57;;;10.33;;
73136;SDS011;67767;45.636;11.756;2023-06-19T02:36:58;14.27;;;10.50;;
73136;SDS011;67767;45.636;11.756;2023-06-19T02:39:24;21.27;;;11.02;;
73136;SDS011;67767;45.636;11.756;2023-06-19T02:41:50;14.27;;;10.20;;
73136;SDS011;67767;45.636;11.756;2023-06-19T02:44:15;17.98;;;10.68;;
73136;SDS011;67767;45.636;11.756;2023-06-19T02:46:41;17.10;;;10.27;;
73136;SDS011;67767;45.636;11.756;2023-06-19T02:49:07;15.90;;;9.75;;
73136;SDS011;67767;45.636;11.756;2023-06-19T02:51:32;13.73;;;10.20;;
73136;SDS011;67767;45.636;11.756;2023-06-19T02:53:58;19.90;;;10.30;;
73136;SDS011;67767;45.636;11.756;2023-06-19T02:56:24;14.50;;;9.68;;
73136;SDS011;67767;45.636;11.756;2023-06-19T02:58:51;16.67;;;10.50;;
73136;SDS011;67767;45.636;11.756;2023-06-19T03:01:17;26.30;;;11.03;;
73136;SDS011;67767;45.636;11.756;2023-06-19T03:03:42;18.42;;;10.10;;
73136;SDS011;67767;45.636;11.756;2023-06-19T03:06:08;16.47;;;10.43;;
73136;SDS011;67767;45.636;11.756;2023-06-19T03:08:34;13.80;;;9.93;;
73136;SDS011;67767;45.636;11.756;2023-06-19T03:11:00;15.07;;;10.47;;
73136;SDS011;67767;45.636;11.756;2023-06-19T03:13:29;15.18;;;10.55;;
73136;SDS011;67767;45.636;11.756;2023-06-19T03:15:57;15.48;;;10.32;;
73136;SDS011;67767;45.636;11.756;2023-06-19T03:18:22;15.30;;;11.03;;
73136;SDS011;67767;45.636;11.756;2023-06-19T03:20:48;14.75;;;10.27;;
73136;SDS011;67767;45.636;11.756;2023-06-19T03:23:14;15.98;;;10.60;;
73136;SDS011;67767;45.636;11.756;2023-06-19T03:25:40;15.00;;;10.47;;
73136;SDS011;67767;45.636;11.756;2023-06-19T03:28:07;16.55;;;11.13;;
73136;SDS011;67767;45.636;11.756;2023-06-19T03:30:33;16.48;;;11.00;;
73136;SDS011;67767;45.636;11.756;2023-06-19T03:32:59;17.83;;;11.13;;
73136;SDS011;67767;45.636;11.756;2023-06-19T03:35:25;15.77;;;11.23;;
73136;SDS011;67767;45.636;11.756;2023-06-19T03:37:50;14.93;;;11.40;;
73136;SDS011;67767;45.636;11.756;2023-06-19T03:40:16;15.67;;;11.37;;
73136;SDS011;67767;45.636;11.756;2023-06-19T03:42:42;16.27;;;11.32;;
73136;SDS011;67767;45.636;11.756;2023-06-19T03:45:08;18.60;;;11.35;;
73136;SDS011;67767;45.636;11.756;2023-06-19T03:47:34;20.63;;;11.88;;
73136;SDS011;67767;45.636;11.756;2023-06-19T03:49:59;17.53;;;11.07;;
73136;SDS011;67767;45.636;11.756;2023-06-19T03:52:25;18.37;;;13.13;;
73136;SDS011;67767;45.636;11.756;2023-06-19T03:54:51;16.60;;;12.17;;
73136;SDS011;67767;45.636;11.756;2023-06-19T03:57:16;18.75;;;12.55;;
73136;SDS011;67767;45.636;11.756;2023-06-19T03:59:42;16.50;;;11.70;;
73136;SDS011;67767;45.636;11.756;2023-06-19T04:02:07;18.88;;;12.20;;
73136;SDS011;67767;45.636;11.756;2023-06-19T04:04:33;18.23;;;10.97;;
73136;SDS011;67767;45.636;11.756;2023-06-19T04:06:59;17.37;;;11.30;;
73136;SDS011;67767;45.636;11.756;2023-06-19T04:09:25;18.77;;;11.87;;
73136;SDS011;67767;45.636;11.756;2023-06-19T04:11:50;15.52;;;11.73;;
73136;SDS011;67767;45.636;11.756;2023-06-19T04:14:17;17.88;;;12.18;;
73136;SDS011;67767;45.636;11.756;2023-06-19T04:16:43;15.77;;;11.67;;
73136;SDS011;67767;45.636;11.756;2023-06-19T04:19:09;15.77;;;11.10;;
73136;SDS011;67767;45.636;11.756;2023-06-19T04:21:34;14.57;;;11.23;;
73136;SDS011;67767;45.636;11.756;2023-06-19T04:24:00;14.97;;;11.00;;
73136;SDS011;67767;45.636;11.756;2023-06-19T04:26:26;15.32;;;10.48;;
73136;SDS011;67767;45.636;11.756;2023-06-19T04:28:51;16.57;;;10.90;;
73136;SDS011;67767;45.636;11.756;2023-06-19T04:31:17;18.08;;;11.55;;
73136;SDS011;67767;45.636;11.756;2023-06-19T04:33:44;15.27;;;11.20;;
73136;SDS011;67767;45.636;11.756;2023-06-19T04:36:10;15.67;;;10.97;;
73136;SDS011;67767;45.636;11.756;2023-06-19T04:38:36;15.15;;;11.32;;
73136;SDS011;67767;45.636;11.756;2023-06-19T04:41:01;16.27;;;11.60;;
73136;SDS011;67767;45.636;11.756;2023-06-19T04:43:27;17.70;;;11.55;;
73136;SDS011;67767;45.636;11.756;2023-06-19T04:45:53;18.03;;;11.33;;
73136;SDS011;67767;45.636;11.756;2023-06-19T04:48:18;15.32;;;10.93;;
73136;SDS011;67767;45.636;11.756;2023-06-19T04:50:44;17.00;;;11.30;;
73136;SDS011;67767;45.636;11.756;2023-06-19T04:53:10;19.35;;;11.90;;
73136;SDS011;67767;45.636;11.756;2023-06-19T04:55:36;14.35;;;10.60;;
73136;SDS011;67767;45.636;11.756;2023-06-19T04:58:02;16.53;;;11.50;;
73136;SDS011;67767;45.636;11.756;2023-06-19T05:00:28;18.00;;;11.20;;
73136;SDS011;67767;45.636;11.756;2023-06-19T05:02:53;20.13;;;11.20;;
73136;SDS011;67767;45.636;11.756;2023-06-19T05:05:24;15.73;;;10.88;;
73136;SDS011;67767;45.636;11.756;2023-06-19T05:07:51;16.17;;;10.85;;
73136;SDS011;67767;45.636;11.756;2023-06-19T05:10:17;16.55;;;11.73;;
73136;SDS011;67767;45.636;11.756;2023-06-19T05:12:44;18.30;;;11.23;;
73136;SDS011;67767;45.636;11.756;2023-06-19T05:15:10;14.57;;;10.60;;
73136;SDS011;67767;45.636;11.756;2023-06-19T05:17:36;16.75;;;11.05;;
73136;SDS011;67767;45.636;11.756;2023-06-19T05:20:04;18.08;;;11.10;;
73136;SDS011;67767;45.636;11.756;2023-06-19T05:22:32;16.70;;;10.27;;
73136;SDS011;67767;45.636;11.756;2023-06-19T05:24:59;14.80;;;9.63;;
73136;SDS011;67767;45.636;11.756;2023-06-19T05:27:25;14.15;;;9.65;;
73136;SDS011;67767;45.636;11.756;2023-06-19T05:29:50;15.00;;;10.00;;
73136;SDS011;67767;45.636;11.756;2023-06-19T05:32:16;15.73;;;10.45;;
73136;SDS011;67767;45.636;11.756;2023-06-19T05:34:42;15.40;;;9.87;;
73136;SDS011;67767;45.636;11.756;2023-06-19T05:37:07;15.48;;;9.98;;
73136;SDS011;67767;45.636;11.756;2023-06-19T05:39:33;16.60;;;10.77;;
73136;SDS011;67767;45.636;11.756;2023-06-19T05:41:59;17.60;;;11.20;;
73136;SDS011;67767;45.636;11.756;2023-06-19T05:44:24;18.40;;;11.27;;
73136;SDS011;67767;45.636;11.756;2023-06-19T05:46:50;16.17;;;11.30;;
73136;SDS011;67767;45.636;11.756;2023-06-19T05:49:16;17.23;;;10.90;;
73136;SDS011;67767;45.636;11.756;2023-06-19T05:51:41;15.33;;;10.97;;
73136;SDS011;67767;45.636;11.756;2023-06-19T05:54:08;16.02;;;10.30;;
73136;SDS011;67767;45.636;11.756;2023-06-19T05:56:34;15.93;;;10.77;;
73136;SDS011;67767;45.636;11.756;2023-06-19T05:59:01;37.47;;;14.70;;
73136;SDS011;67767;45.636;11.756;2023-06-19T06:01:27;17.65;;;10.88;;
73136;SDS011;67767;45.636;11.756;2023-06-19T06:03:54;17.33;;;11.55;;
73136;SDS011;67767;45.636;11.756;2023-06-19T06:06:20;16.85;;;10.95;;
73136;SDS011;67767;45.636;11.756;2023-06-19T06:08:46;15.13;;;10.32;;
73136;SDS011;67767;45.636;11.756;2023-06-19T06:11:11;15.63;;;10.20;;
73136;SDS011;67767;45.636;11.756;2023-06-19T06:13:37;12.27;;;8.43;;
73136;SDS011;67767;45.636;11.756;2023-06-19T06:16:03;13.60;;;8.83;;
73136;SDS011;67767;45.636;11.756;2023-06-19T06:18:29;15.38;;;8.73;;
73136;SDS011;67767;45.636;11.756;2023-06-19T06:20:55;11.67;;;8.47;;
73136;SDS011;67767;45.636;11.756;2023-06-19T06:23:21;11.13;;;8.13;;
73136;SDS011;67767;45.636;11.756;2023-06-19T06:25:46;11.55;;;7.57;;
73136;SDS011;67767;45.636;11.756;2023-06-19T06:28:13;10.60;;;6.53;;
73136;SDS011;67767;45.636;11.756;2023-06-19T06:30:39;13.82;;;8.07;;
73136;SDS011;67767;45.636;11.756;2023-06-19T06:33:05;11.40;;;6.78;;
73136;SDS011;67767;45.636;11.756;2023-06-19T06:35:31;9.17;;;5.60;;
73136;SDS011;67767;45.636;11.756;2023-06-19T06:37:57;10.30;;;5.60;;
73136;SDS011;67767;45.636;11.756;2023-06-19T06:40:22;8.33;;;5.40;;
73136;SDS011;67767;45.636;11.756;2023-06-19T06:42:48;10.60;;;6.63;;
73136;SDS011;67767;45.636;11.756;2023-06-19T06:45:14;12.43;;;6.37;;
73136;SDS011;67767;45.636;11.756;2023-06-19T06:47:40;18.13;;;6.40;;
73136;SDS011;67767;45.636;11.756;2023-06-19T06:50:06;10.60;;;6.60;;
73136;SDS011;67767;45.636;11.756;2023-06-19T06:52:32;8.80;;;5.80;;
73136;SDS011;67767;45.636;11.756;2023-06-19T06:54:58;9.43;;;6.15;;
73136;SDS011;67767;45.636;11.756;2023-06-19T06:57:24;10.87;;;7.10;;
73136;SDS011;67767;45.636;11.756;2023-06-19T06:59:50;12.00;;;6.85;;
73136;SDS011;67767;45.636;11.756;2023-06-19T07:02:15;12.07;;;6.20;;
73136;SDS011;67767;45.636;11.756;2023-06-19T07:04:41;14.20;;;6.53;;
73136;SDS011;67767;45.636;11.756;2023-06-19T07:07:07;9.03;;;6.23;;
73136;SDS011;67767;45.636;11.756;2023-06-19T07:09:33;13.03;;;6.67;;
73136;SDS011;67767;45.636;11.756;2023-06-19T07:11:59;8.68;;;5.25;;
73136;SDS011;67767;45.636;11.756;2023-06-19T07:14:29;15.30;;;6.68;;
73136;SDS011;67767;45.636;11.756;2023-06-19T07:16:55;10.82;;;6.40;;
73136;SDS011;67767;45.636;11.756;2023-06-19T07:19:20;9.70;;;6.27;;
73136;SDS011;67767;45.636;11.756;2023-06-19T07:21:46;11.93;;;5.65;;
73136;SDS011;67767;45.636;11.756;2023-06-19T07:24:14;9.32;;;5.20;;
73136;SDS011;67767;45.636;11.756;2023-06-19T07:26:40;7.83;;;4.73;;
73136;SDS011;67767;45.636;11.756;2023-06-19T07:29:05;10.27;;;5.30;;
73136;SDS011;67767;45.636;11.756;2023-06-19T07:31:31;10.47;;;5.30;;
73136;SDS011;67767;45.636;11.756;2023-06-19T07:33:57;10.30;;;5.40;;
73136;SDS011;67767;45.636;11.756;2023-06-19T07:36:23;9.18;;;5.15;;
73136;SDS011;67767;45.636;11.756;2023-06-19T07:38:48;10.07;;;4.90;;
73136;SDS011;67767;45.636;11.756;2023-06-19T07:41:14;10.20;;;4.73;;
73136;SDS011;67767;45.636;11.756;2023-06-19T07:43:40;10.18;;;5.20;;
73136;SDS011;67767;45.636;11.756;2023-06-19T07:46:05;9.97;;;4.90;;
73136;SDS011;67767;45.636;11.756;2023-06-19T07:48:31;12.10;;;5.60;;
73136;SDS011;67767;45.636;11.756;2023-06-19T07:50:57;13.97;;;5.17;;
73136;SDS011;67767;45.636;11.756;2023-06-19T07:53:22;13.10;;;5.80;;
73136;SDS011;67767;45.636;11.756;2023-06-19T07:55:48;10.03;;;5.83;;
73136;SDS011;67767;45.636;11.756;2023-06-19T07:58:14;13.55;;;6.03;;
73136;SDS011;67767;45.636;11.756;2023-06-19T08:00:39;12.70;;;6.10;;
73136;SDS011;67767;45.636;11.756;2023-06-19T08:03:05;16.90;;;7.70;;
73136;SDS011;67767;45.636;11.756;2023-06-19T08:05:31;13.60;;;6.87;;
73136;SDS011;67767;45.636;11.756;2023-06-19T08:07:58;11.18;;;6.82;;
73136;SDS011;67767;45.636;11.756;2023-06-19T08:10:24;10.63;;;6.53;;
73136;SDS011;67767;45.636;11.756;2023-06-19T08:12:50;12.23;;;6.47;;
73136;SDS011;67767;45.636;11.756;2023-06-19T08:15:15;11.93;;;7.00;;
73136;SDS011;67767;45.636;11.756;2023-06-19T08:17:41;9.43;;;6.67;;
73136;SDS011;67767;45.636;11.756;2023-06-19T08:20:07;12.35;;;8.50;;
73136;SDS011;67767;45.636;11.756;2023-06-19T08:22:34;10.77;;;6.40;;
73136;SDS011;67767;45.636;11.756;2023-06-19T08:25:01;11.95;;;7.68;;
73136;SDS011;67767;45.636;11.756;2023-06-19T08:27:27;12.30;;;6.90;;
73136;SDS011;67767;45.636;11.756;2023-06-19T08:29:53;10.07;;;6.20;;
73136;SDS011;67767;45.636;11.756;2023-06-19T08:32:18;11.23;;;6.27;;
73136;SDS011;67767;45.636;11.756;2023-06-19T08:34:44;10.13;;;6.18;;
73136;SDS011;67767;45.636;11.756;2023-06-19T08:37:10;9.15;;;5.63;;
73136;SDS011;67767;45.636;11.756;2023-06-19T08:39:36;12.33;;;5.90;;
73136;SDS011;67767;45.636;11.756;2023-06-19T08:42:05;13.15;;;5.70;;
73136;SDS011;67767;45.636;11.756;2023-06-19T08:44:32;9.15;;;6.15;;
73136;SDS011;67767;45.636;11.756;2023-06-19T08:46:59;8.40;;;4.88;;
73136;SDS011;67767;45.636;11.756;2023-06-19T08:49:29;8.25;;;5.10;;
73136;SDS011;67767;45.636;11.756;2023-06-19T08:51:55;9.83;;;5.30;;
73136;SDS011;67767;45.636;11.756;2023-06-19T08:54:21;11.05;;;5.72;;
73136;SDS011;67767;45.636;11.756;2023-06-19T08:56:47;8.90;;;5.13;;
73136;SDS011;67767;45.636;11.756;2023-06-19T08:59:13;15.45;;;6.30;;
73136;SDS011;67767;45.636;11.756;2023-06-19T09:01:45;12.57;;;5.28;;
73136;SDS011;67767;45.636;11.756;2023-06-19T09:04:18;10.90;;;5.32;;
73136;SDS011;67767;45.636;11.756;2023-06-19T09:06:47;9.65;;;5.20;;
73136;SDS011;67767;45.636;11.756;2023-06-19T09:09:13;9.50;;;5.20;;
73136;SDS011;67767;45.636;11.756;2023-06-19T09:11:42;9.35;;;4.57;;
73136;SDS011;67767;45.636;11.756;2023-06-19T09:14:11;8.07;;;4.60;;
73136;SDS011;67767;45.636;11.756;2023-06-19T09:16:40;7.93;;;4.40;;
73136;SDS011;67767;45.636;11.756;2023-06-19T09:19:07;9.77;;;4.37;;
73136;SDS011;67767;45.636;11.756;2023-06-19T09:21:35;10.18;;;5.03;;
73136;SDS011;67767;45.636;11.756;2023-06-19T09:24:05;7.63;;;4.32;;
73136;SDS011;67767;45.636;11.756;2023-06-19T09:26:32;9.27;;;4.63;;
73136;SDS011;67767;45.636;11.756;2023-06-19T09:29:09;9.27;;;4.60;;
73136;SDS011;67767;45.636;11.756;2023-06-19T09:31:35;10.05;;;4.53;;
73136;SDS011;67767;45.636;11.756;2023-06-19T09:34:02;9.85;;;5.20;;
73136;SDS011;67767;45.636;11.756;2023-06-19T09:36:29;9.52;;;5.07;;
73136;SDS011;67767;45.636;11.756;2023-06-19T09:38:57;9.30;;;5.22;;
73136;SDS011;67767;45.636;11.756;2023-06-19T09:41:25;10.80;;;5.23;;
73136;SDS011;67767;45.636;11.756;2023-06-19T09:43:52;9.52;;;4.75;;
73136;SDS011;67767;45.636;11.756;2023-06-19T09:46:23;8.07;;;4.40;;
73136;SDS011;67767;45.636;11.756;2023-06-19T09:48:54;15.50;;;5.65;;
73136;SDS011;67767;45.636;11.756;2023-06-19T09:51:27;11.18;;;5.20;;
73136;SDS011;67767;45.636;11.756;2023-06-19T09:54:02;8.93;;;4.77;;
73136;SDS011;67767;45.636;11.756;2023-06-19T09:56:29;9.40;;;4.63;;
73136;SDS011;67767;45.636;11.756;2023-06-19T09:58:56;9.63;;;4.88;;
73136;SDS011;67767;45.636;11.756;2023-06-19T10:01:25;9.15;;;5.13;;
73136;SDS011;67767;45.636;11.756;2023-06-19T10:04:08;8.38;;;5.20;;
73136;SDS011;67767;45.636;11.756;2023-06-19T10:06:45;10.63;;;5.53;;
73136;SDS011;67767;45.636;11.756;2023-06-19T10:09:13;11.48;;;5.28;;
73136;SDS011;67767;45.636;11.756;2023-06-19T10:11:50;10.25;;;5.30;;
73136;SDS011;67767;45.636;11.756;2023-06-19T10:14:20;10.70;;;5.40;;
73136;SDS011;67767;45.636;11.756;2023-06-19T10:16:46;10.07;;;4.70;;
73136;SDS011;67767;45.636;11.756;2023-06-19T10:19:15;7.87;;;4.90;;
73136;SDS011;67767;45.636;11.756;2023-06-19T10:21:48;10.07;;;4.93;;
73136;SDS011;67767;45.636;11.756;2023-06-19T10:24:16;9.02;;;5.03;;
73136;SDS011;67767;45.636;11.756;2023-06-19T10:26:43;9.38;;;4.82;;
73136;SDS011;67767;45.636;11.756;2023-06-19T10:29:18;8.00;;;5.10;;
73136;SDS011;67767;45.636;11.756;2023-06-19T10:31:44;9.23;;;5.22;;
73136;SDS011;67767;45.636;11.756;2023-06-19T10:34:10;9.95;;;5.60;;
73136;SDS011;67767;45.636;11.756;2023-06-19T10:36:37;9.23;;;6.00;;
73136;SDS011;67767;45.636;11.756;2023-06-19T10:39:02;9.43;;;5.10;;
73136;SDS011;67767;45.636;11.756;2023-06-19T10:41:29;9.18;;;5.78;;
73136;SDS011;67767;45.636;11.756;2023-06-19T10:46:29;9.38;;;5.10;;
73136;SDS011;67767;45.636;11.756;2023-06-19T10:48:57;10.32;;;5.32;;
73136;SDS011;67767;45.636;11.756;2023-06-19T10:51:28;8.57;;;5.30;;
73136;SDS011;67767;45.636;11.756;2023-06-19T10:53:54;8.77;;;5.60;;
73136;SDS011;67767;45.636;11.756;2023-06-19T10:56:21;10.60;;;6.13;;
73136;SDS011;67767;45.636;11.756;2023-06-19T10:58:47;11.00;;;5.80;;
73136;SDS011;67767;45.636;11.756;2023-06-19T11:01:13;9.18;;;5.07;;
73136;SDS011;67767;45.636;11.756;2023-06-19T11:03:39;8.63;;;5.60;;
73136;SDS011;67767;45.636;11.756;2023-06-19T11:06:05;8.32;;;5.63;;
73136;SDS011;67767;45.636;11.756;2023-06-19T11:08:31;9.27;;;5.60;;
73136;SDS011;67767;45.636;11.756;2023-06-19T11:10:56;9.73;;;5.77;;
73136;SDS011;67767;45.636;11.756;2023-06-19T11:13:22;8.93;;;5.60;;
73136;SDS011;67767;45.636;11.756;2023-06-19T11:15:48;8.57;;;5.70;;
73136;SDS011;67767;45.636;11.756;2023-06-19T11:18:15;10.85;;;7.05;;
73136;SDS011;67767;45.636;11.756;2023-06-19T11:20:48;11.93;;;6.57;;
73136;SDS011;67767;45.636;11.756;2023-06-19T11:23:15;9.80;;;6.30;;
73136;SDS011;67767;45.636;11.756;2023-06-19T11:25:42;9.07;;;6.13;;
73136;SDS011;67767;45.636;11.756;2023-06-19T11:28:14;10.80;;;7.35;;
73136;SDS011;67767;45.636;11.756;2023-06-19T11:30:47;9.77;;;6.75;;
73136;SDS011;67767;45.636;11.756;2023-06-19T11:33:17;10.52;;;7.20;;
73136;SDS011;67767;45.636;11.756;2023-06-19T11:35:49;10.47;;;6.60;;
73136;SDS011;67767;45.636;11.756;2023-06-19T11:38:19;10.55;;;6.43;;
73136;SDS011;67767;45.636;11.756;2023-06-19T11:40:46;10.13;;;5.95;;
73136;SDS011;67767;45.636;11.756;2023-06-19T11:43:23;10.73;;;6.97;;
73136;SDS011;67767;45.636;11.756;2023-06-19T11:46:02;10.05;;;6.45;;
73136;SDS011;67767;45.636;11.756;2023-06-19T11:48:31;10.27;;;6.00;;
73136;SDS011;67767;45.636;11.756;2023-06-19T11:50:58;12.98;;;7.43;;
73136;SDS011;67767;45.636;11.756;2023-06-19T11:53:24;10.98;;;7.32;;
73136;SDS011;67767;45.636;11.756;2023-06-19T11:55:50;9.90;;;6.88;;
73136;SDS011;67767;45.636;11.756;2023-06-19T11:58:16;10.20;;;6.60;;
73136;SDS011;67767;45.636;11.756;2023-06-19T12:00:42;9.73;;;6.95;;
73136;SDS011;67767;45.636;11.756;2023-06-19T12:03:08;9.43;;;6.47;;
73136;SDS011;67767;45.636;11.756;2023-06-19T12:05:37;11.53;;;6.40;;
73136;SDS011;67767;45.636;11.756;2023-06-19T12:08:03;11.25;;;6.65;;
73136;SDS011;67767;45.636;11.756;2023-06-19T12:10:29;9.65;;;6.28;;
73136;SDS011;67767;45.636;11.756;2023-06-19T12:12:55;9.18;;;6.38;;
73136;SDS011;67767;45.636;11.756;2023-06-19T12:15:21;7.73;;;5.97;;
73136;SDS011;67767;45.636;11.756;2023-06-19T12:17:47;9.40;;;5.85;;
73136;SDS011;67767;45.636;11.756;2023-06-19T12:20:13;10.07;;;6.22;;
73136;SDS011;67767;45.636;11.756;2023-06-19T12:22:39;11.32;;;6.68;;
73136;SDS011;67767;45.636;11.756;2023-06-19T12:25:06;8.60;;;6.10;;
73136;SDS011;67767;45.636;11.756;2023-06-19T12:27:32;9.20;;;5.70;;
73136;SDS011;67767;45.636;11.756;2023-06-19T12:29:57;8.43;;;6.30;;
73136;SDS011;67767;45.636;11.756;2023-06-19T12:32:23;9.53;;;5.50;;
73136;SDS011;67767;45.636;11.756;2023-06-19T12:34:49;8.60;;;5.47;;
73136;SDS011;67767;45.636;11.756;2023-06-19T12:37:19;8.02;;;5.78;;
73136;SDS011;67767;45.636;11.756;2023-06-19T12:39:45;9.82;;;5.75;;
73136;SDS011;67767;45.636;11.756;2023-06-19T12:42:14;10.93;;;5.63;;
73136;SDS011;67767;45.636;11.756;2023-06-19T12:44:40;8.97;;;5.63;;
73136;SDS011;67767;45.636;11.756;2023-06-19T12:47:07;9.75;;;5.22;;
73136;SDS011;67767;45.636;11.756;2023-06-19T12:49:33;9.05;;;6.25;;
73136;SDS011;67767;45.636;11.756;2023-06-19T12:51:59;10.75;;;6.82;;
73136;SDS011;67767;45.636;11.756;2023-06-19T12:54:25;10.23;;;6.13;;
73136;SDS011;67767;45.636;11.756;2023-06-19T12:56:51;7.70;;;5.60;;
73136;SDS011;67767;45.636;11.756;2023-06-19T12:59:18;8.43;;;6.03;;
73136;SDS011;67767;45.636;11.756;2023-06-19T13:01:44;7.82;;;5.30;;
73136;SDS011;67767;45.636;11.756;2023-06-19T13:04:10;8.63;;;5.80;;
73136;SDS011;67767;45.636;11.756;2023-06-19T13:06:37;8.48;;;5.65;;
73136;SDS011;67767;45.636;11.756;2023-06-19T13:09:04;8.73;;;5.35;;
73136;SDS011;67767;45.636;11.756;2023-06-19T13:11:30;8.68;;;5.15;;
73136;SDS011;67767;45.636;11.756;2023-06-19T13:13:56;8.83;;;5.40;;
73136;SDS011;67767;45.636;11.756;2023-06-19T13:16:22;7.25;;;4.93;;
73136;SDS011;67767;45.636;11.756;2023-06-19T13:18:50;9.15;;;5.25;;
73136;SDS011;67767;45.636;11.756;2023-06-19T13:21:16;7.43;;;5.40;;
73136;SDS011;67767;45.636;11.756;2023-06-19T13:23:42;8.15;;;5.28;;
73136;SDS011;67767;45.636;11.756;2023-06-19T13:26:08;9.73;;;5.32;;
73136;SDS011;67767;45.636;11.756;2023-06-19T13:28:34;9.63;;;5.15;;
73136;SDS011;67767;45.636;11.756;2023-06-19T13:31:02;7.00;;;5.22;;
73136;SDS011;67767;45.636;11.756;2023-06-19T13:33:28;7.00;;;5.37;;
73136;SDS011;67767;45.636;11.756;2023-06-19T13:35:54;7.05;;;4.97;;
73136;SDS011;67767;45.636;11.756;2023-06-19T13:38:20;7.47;;;5.10;;
73136;SDS011;67767;45.636;11.756;2023-06-19T13:40:46;7.27;;;5.30;;
73136;SDS011;67767;45.636;11.756;2023-06-19T13:43:12;8.77;;;5.68;;
73136;SDS011;67767;45.636;11.756;2023-06-19T13:45:38;8.18;;;5.60;;
73136;SDS011;67767;45.636;11.756;2023-06-19T13:48:04;9.63;;;5.30;;
73136;SDS011;67767;45.636;11.756;2023-06-19T13:50:30;11.73;;;6.40;;
73136;SDS011;67767;45.636;11.756;2023-06-19T13:52:57;9.25;;;5.57;;
73136;SDS011;67767;45.636;11.756;2023-06-19T13:55:23;8.55;;;5.45;;
73136;SDS011;67767;45.636;11.756;2023-06-19T13:57:49;7.47;;;5.47;;
73136;SDS011;67767;45.636;11.756;2023-06-19T14:00:15;8.48;;;5.50;;
73136;SDS011;67767;45.636;11.756;2023-06-19T14:02:41;10.30;;;5.47;;
73136;SDS011;67767;45.636;11.756;2023-06-19T14:05:10;7.40;;;5.00;;
73136;SDS011;67767;45.636;11.756;2023-06-19T14:07:36;7.88;;;5.22;;
73136;SDS011;67767;45.636;11.756;2023-06-19T14:10:02;7.97;;;5.20;;
73136;SDS011;67767;45.636;11.756;2023-06-19T14:12:29;8.07;;;4.72;;
73136;SDS011;67767;45.636;11.756;2023-06-19T14:14:55;6.63;;;4.80;;
73136;SDS011;67767;45.636;11.756;2023-06-19T14:17:21;9.18;;;4.78;;
73136;SDS011;67767;45.636;11.756;2023-06-19T14:19:48;7.07;;;4.60;;
73136;SDS011;67767;45.636;11.756;2023-06-19T14:22:14;7.15;;;4.90;;
73136;SDS011;67767;45.636;11.756;2023-06-19T14:24:39;8.32;;;5.00;;